Three Forks, MT (59752)

4:11 AM MDT on September 03, 2015 (GMT -0600)
Three Forks High School | | Change Station
CLOSE
Current Station
Personal Weather Station
Location: Three Forks, MT
Elevation: 4075 ft
Nearby Weather Stations

Elev 4075 ft 45.90 °N, 111.55 °W | Updated 52 seconds ago

Partly Cloudy
Partly Cloudy
56.9 °F
Feels Like 56.9 °F
N
2.0
Wind Variable Wind from ESE

Today
High -- | Low -- °F
--% Chance of Precip.
Yesterday
High -- | Low -- °F
Precip. -- in
6:49 AM 8:01 PM
Waning Gibbous, 71% visible
Pressure 29.70 in
Visibility 10.0 miles
Clouds Few 3300 ft
Mostly Cloudy 11000 ft
Dew Point 42 °F
Humidity 58%
Rainfall 0.00 in
Snow Depth Not available.
UV 0 out of 12
Pollen 8.40 out of 12
Air Quality Not available.
Flu Activity Not available.
METAR KBZN 030956Z AUTO 15007KT 10SM FEW033 BKN110 12/07 A2983 RMK AO2 RAB12E48 SLP055 P0000 T01170072
Pressure 29.70 in
Visibility 10.0 miles
Clouds Few 3300 ft
Mostly Cloudy 11000 ft
Dew Point 42 °F
Humidity 58%
Rainfall 0.00 in
Snow Depth Not available.
UV 0 out of 12
Pollen 8.40 out of 12
Air Quality Not available.
Flu Activity Not available.
METAR KBZN 030956Z AUTO 15007KT 10SM FEW033 BKN110 12/07 A2983 RMK AO2 RAB12E48 SLP055 P0000 T01170072

10-Day Weather Forecast

×

Almanac

Astronomy

Sep. 03, 2015 Rise Set
Actual Time
Civil Twilight
Nautical Twilight
Astronomical Twilight
Moon
Length of Visible Light
Length of Day
Tomorrow will be .
, % of the Moon is Illuminated

Today's Extremes

State Highs State Lows

Community

WunderPhotos

Upload Photos

1,851,929 photos uploaded!

WunderBlogs® & News

Nearby

Air Quality

  Air Quality AQ Index Pollutant
Not available.

Snow Depth

Station Depth Elevation

Earthquake Activity

City Distance Mag. Time & Date
Minimum magnitude displayed is 2.5.

Coastal Water Temperatures

Place Temperature

Stations

Nearby Weather Stations

Station Location Temp. Windchill Dew Point Humidity Wind Precip. Elev Updated Type